Hlavní strana
METAR-TAF:

METAR-TAF

Letiště :

Henderson-Oxford Airport

Oxford, Severní Karolína, Spojené státy americké

zeměpisná šířka: 36-21-42N, zeměpisná délka: 078-31-45W, výška: 161 m

Aktuální stav počasí

Zpráva byla vytvořena před 20 minutami, v 16:15 UTC
Západní vítr 12 kt s nárazy do 21 kt
Teplota 4°C
Vlhkost vzduchu 38%
Tlak 1015 hPa
Viditelnost: 16.1 km
Jasno

METAR: KHNZ 271615Z AUTO 28012G21KT 10SM CLR 04/M09 A2997 RMK AO2 T00431090

Čas: 11:35 (16:35 UTC)


TAF: chybějící

Stav a předpovědi počasí z více než 4 000 letišť (zprávy METAR a TAF).

Červené a žluté tečky na mapě představují dostupné meteorologické stanice.

Když kurzor umístíte na tečku, zobrazí se název stanice.

Pak kliknutím zobrazíte stav a předpověď počasí.

Chcete-li změnit mapu, kliknutím na zelené tlačítko se znaménkem +mapu přiblížíte, kliknutím na zelené tlačítko se znaménkem – mapu oddálíte a kliknutím na zelené šipky přejdete na sousední mapy.


METAR-TAF: